createdAt,value
2023-02-01T00:01:20.301Z,100017.38
2023-02-01T00:03:46.861Z,100021.91
2023-02-01T00:06:13.444Z,100012.19
2023-02-01T00:08:40.027Z,100020.63
2023-02-01T00:11:08.435Z,100033.59
2023-02-01T00:13:35.986Z,100050.72
2023-02-01T00:16:05.871Z,100046.03
2023-02-01T00:18:32.518Z,100035.47
2023-02-01T00:20:59.161Z,100033.59
2023-02-01T00:23:25.713Z,100023.41
2023-02-01T00:25:52.259Z,100039.91
2023-02-01T00:28:18.839Z,100019.94
2023-02-01T00:30:45.464Z,100032.44
2023-02-01T00:33:12.059Z,100019.53
2023-02-01T00:35:38.565Z,100020.69
2023-02-01T00:38:05.115Z,100016.56
2023-02-01T00:40:31.866Z,100025.06
2023-02-01T00:42:58.869Z,99998.31
2023-02-01T00:45:25.477Z,100001.31
2023-02-01T00:47:52.053Z,99984.59
2023-02-01T00:50:18.598Z,99960.06
2023-02-01T00:52:45.165Z,99975.72
2023-02-01T00:55:11.697Z,99993.00
2023-02-01T00:57:38.208Z,99958.19
2023-02-01T01:00:05.002Z,99965.59
2023-02-01T01:02:31.564Z,99986.16
2023-02-01T01:04:58.099Z,99979.59
2023-02-01T01:07:25.947Z,99979.34
2023-02-01T01:09:52.518Z,99997.28
2023-02-01T01:12:20.842Z,100002.56
2023-02-01T01:14:47.478Z,100016.53
2023-02-01T01:17:13.988Z,100049.59
2023-02-01T01:19:40.542Z,100050.66
2023-02-01T01:22:07.124Z,100017.81
2023-02-01T01:24:33.681Z,100000.56
2023-02-01T01:27:00.278Z,100002.31
2023-02-01T01:29:26.923Z,99976.53
2023-02-01T01:31:53.519Z,100000.22
2023-02-01T01:34:20.083Z,99995.13
2023-02-01T01:36:46.658Z,99998.88
2023-02-01T01:39:13.171Z,99999.31
2023-02-01T01:41:39.750Z,99984.94
2023-02-01T01:44:07.753Z,99991.81
2023-02-01T01:46:36.265Z,100001.84
2023-02-01T01:49:02.824Z,100009.97
2023-02-01T01:51:30.769Z,100030.28
2023-02-01T01:54:01.571Z,100012.88
2023-02-01T01:56:29.913Z,100000.16
2023-02-01T01:58:56.723Z,99969.88
2023-02-01T02:01:23.365Z,99974.19
2023-02-01T02:03:51.044Z,99969.06
2023-02-01T02:06:37.834Z,99990.53
2023-02-01T02:09:06.919Z,99994.69
2023-02-01T02:11:33.856Z,100019.81
2023-02-01T02:14:00.960Z,100046.03
2023-02-01T02:16:27.864Z,100044.19
2023-02-01T02:19:07.198Z,100016.94
2023-02-01T02:21:36.763Z,100026.16
2023-02-01T02:24:06.272Z,100012.97
2023-02-01T02:26:39.903Z,100027.06
2023-02-01T02:29:25.022Z,100030.00
2023-02-01T02:32:10.489Z,100023.22
2023-02-01T02:34:41.821Z,100015.59
2023-02-01T02:37:08.323Z,100021.72
2023-02-01T02:39:47.115Z,100025.91
2023-02-01T02:42:36.196Z,100027.22
2023-02-01T02:45:26.939Z,100003.94
2023-02-01T02:48:08.711Z,99991.00
2023-02-01T02:50:53.824Z,99994.13
2023-02-01T02:53:52.153Z,99998.66
2023-02-01T02:56:39.772Z,99986.22
2023-02-01T02:59:26.873Z,99973.25
2023-02-01T03:02:12.187Z,99976.69
2023-02-01T03:04:38.798Z,99972.00
2023-02-01T03:07:13.754Z,99981.50
2023-02-01T03:09:41.561Z,99976.38
2023-02-01T03:12:31.818Z,99973.59
2023-02-01T03:15:06.786Z,99967.50
2023-02-01T03:17:37.427Z,99982.16
2023-02-01T03:20:04.809Z,99975.06
2023-02-01T03:22:32.926Z,99984.16
2023-02-01T03:25:02.702Z,100001.19
2023-02-01T03:27:33.862Z,100010.69
2023-02-01T03:30:06.832Z,100015.03
2023-02-01T03:32:54.971Z,100001.97
2023-02-01T03:35:26.627Z,100002.88
2023-02-01T03:37:56.859Z,100001.09
2023-02-01T03:40:24.245Z,99985.34
2023-02-01T03:42:55.780Z,99977.41
2023-02-01T03:45:30.697Z,99987.75
2023-02-01T03:47:59.497Z,99979.41
2023-02-01T03:50:27.491Z,100017.41
2023-02-01T03:52:57.794Z,100003.69
2023-02-01T03:55:25.704Z,99992.69
2023-02-01T03:57:58.282Z,99991.63
2023-02-01T04:00:26.198Z,99984.94
2023-02-01T04:02:53.274Z,99979.03
2023-02-01T04:05:20.250Z,99967.84
2023-02-01T04:07:46.875Z,99964.56
2023-02-01T04:10:13.940Z,99969.91
2023-02-01T04:12:42.150Z,99958.53
2023-02-01T04:15:09.152Z,99962.16
2023-02-01T04:17:35.750Z,99967.34
2023-02-01T04:20:02.305Z,99965.66
2023-02-01T04:22:29.862Z,99983.00
2023-02-01T04:24:56.433Z,99969.25
2023-02-01T04:27:22.972Z,99968.25
2023-02-01T04:29:52.769Z,99969.22
2023-02-01T04:32:20.816Z,99967.59
2023-02-01T04:34:47.400Z,99952.97
2023-02-01T04:37:13.996Z,99960.69
2023-02-01T04:39:40.511Z,99953.13
2023-02-01T04:42:07.114Z,99953.13
2023-02-01T04:44:33.660Z,99957.56
2023-02-01T04:47:00.176Z,99956.66
2023-02-01T04:49:27.874Z,99949.72
2023-02-01T04:51:54.442Z,99965.56
2023-02-01T04:54:21.000Z,99953.44
2023-02-01T04:56:47.560Z,99964.59
2023-02-01T04:59:14.202Z,99962.84
2023-02-01T05:01:40.767Z,99974.97
2023-02-01T05:04:07.311Z,99981.91
2023-02-01T05:06:33.868Z,99986.22
2023-02-01T05:09:00.598Z,99986.28
2023-02-01T05:11:45.778Z,99981.88
2023-02-01T05:14:12.376Z,99993.09
2023-02-01T05:16:38.899Z,99988.75
2023-02-01T05:19:05.451Z,99992.25
2023-02-01T05:21:32.050Z,99998.03
2023-02-01T05:24:10.678Z,99992.91
2023-02-01T05:26:37.993Z,99991.47
2023-02-01T05:29:05.228Z,100005.19
2023-02-01T05:31:32.161Z,100011.94
2023-02-01T05:33:58.842Z,100007.06
2023-02-01T05:36:25.472Z,100007.81
2023-02-01T05:38:52.067Z,100021.47
2023-02-01T05:41:18.598Z,100017.97
2023-02-01T05:43:45.129Z,100022.13
2023-02-01T05:46:13.804Z,100030.66
2023-02-01T05:48:40.793Z,100032.19
2023-02-01T05:51:07.449Z,100036.47
2023-02-01T05:53:34.180Z,100033.91
2023-02-01T05:56:00.796Z,100038.88
2023-02-01T05:58:27.583Z,100036.47
2023-02-01T06:00:54.140Z,100036.41
2023-02-01T06:03:20.715Z,100038.81
2023-02-01T06:05:48.140Z,100054.19
2023-02-01T06:08:15.310Z,100045.44
2023-02-01T06:10:41.857Z,100058.38
2023-02-01T06:13:08.598Z,100053.41
2023-02-01T06:15:35.330Z,100055.25
2023-02-01T06:18:01.944Z,100056.78
2023-02-01T06:20:28.484Z,100053.31
2023-02-01T06:22:55.124Z,100061.25
2023-02-01T06:25:22.403Z,100069.56
2023-02-01T06:27:49.426Z,100074.53
2023-02-01T06:30:16.058Z,100073.00
2023-02-01T06:32:42.687Z,100073.75
2023-02-01T06:35:11.383Z,100090.16
2023-02-01T06:37:38.645Z,100089.22
2023-02-01T06:40:05.431Z,100090.03
2023-02-01T06:42:31.961Z,100096.19
2023-02-01T06:44:58.511Z,100098.69
2023-02-01T06:47:25.037Z,100105.66
2023-02-01T06:49:51.541Z,100106.50
2023-02-01T06:52:18.130Z,100104.72
2023-02-01T06:54:44.664Z,100107.34
2023-02-01T06:57:11.224Z,100103.72
2023-02-01T06:59:38.334Z,100111.72
2023-02-01T07:02:04.903Z,100120.28
2023-02-01T07:04:31.429Z,100113.78
2023-02-01T07:06:58.007Z,100114.72
2023-02-01T07:09:24.530Z,100124.09
2023-02-01T07:11:51.047Z,100124.41
2023-02-01T07:14:17.604Z,100137.41
2023-02-01T07:16:44.141Z,100131.25
2023-02-01T07:19:10.672Z,100130.59
2023-02-01T07:21:37.206Z,100140.00
2023-02-01T07:24:03.894Z,100142.59
2023-02-01T07:26:30.537Z,100129.56
2023-02-01T07:28:57.184Z,100145.09
2023-02-01T07:31:23.865Z,100151.47
2023-02-01T07:33:52.665Z,100158.16
2023-02-01T07:36:20.164Z,100164.00
2023-02-01T07:38:48.180Z,100163.38
2023-02-01T07:41:14.983Z,100169.69
2023-02-01T07:43:41.677Z,100174.56
2023-02-01T07:46:08.347Z,100177.13
2023-02-01T07:48:35.218Z,100170.41
2023-02-01T07:51:05.657Z,100190.97
2023-02-01T07:53:33.268Z,100189.31
2023-02-01T07:55:59.861Z,100187.78
2023-02-01T07:58:27.005Z,100191.25
2023-02-01T08:01:12.231Z,100198.25
2023-02-01T08:03:39.014Z,100207.78
2023-02-01T08:06:06.111Z,100205.13
2023-02-01T08:08:32.668Z,100208.69
2023-02-01T08:11:00.080Z,100229.44
2023-02-01T08:13:26.697Z,100231.81
2023-02-01T08:15:53.350Z,100240.41
2023-02-01T08:18:20.030Z,100239.66
2023-02-01T08:20:49.456Z,100247.53
2023-02-01T08:23:16.056Z,100248.34
2023-02-01T08:25:42.673Z,100250.25
2023-02-01T08:28:09.375Z,100254.56
2023-02-01T08:30:37.211Z,100245.94
2023-02-01T08:33:03.803Z,100261.44
2023-02-01T08:35:42.351Z,100257.94
2023-02-01T08:38:09.618Z,100259.50
2023-02-01T08:40:36.198Z,100269.06
2023-02-01T08:43:02.774Z,100274.91
2023-02-01T08:45:31.060Z,100281.66
2023-02-01T08:47:58.072Z,100281.31
2023-02-01T08:50:25.758Z,100289.03
2023-02-01T08:52:53.322Z,100294.38
2023-02-01T08:55:20.326Z,100293.06
2023-02-01T08:57:47.152Z,100301.16
2023-02-01T09:00:16.751Z,100307.09
2023-02-01T09:02:43.452Z,100304.25
2023-02-01T09:05:10.209Z,100308.28
2023-02-01T09:07:36.852Z,100314.69
2023-02-01T09:10:03.715Z,100321.19
2023-02-01T09:12:30.533Z,100310.16
2023-02-01T09:14:57.955Z,100313.50
2023-02-01T09:17:24.522Z,100311.56
2023-02-01T09:19:51.123Z,100311.25
2023-02-01T09:22:17.750Z,100320.09
2023-02-01T09:24:44.342Z,100325.13
2023-02-01T09:27:10.948Z,100321.59
2023-02-01T09:29:37.637Z,100327.41
2023-02-01T09:32:04.919Z,100332.13
2023-02-01T09:34:31.753Z,100337.94
2023-02-01T09:36:58.344Z,100344.09
2023-02-01T09:39:24.977Z,100334.16
2023-02-01T09:42:00.903Z,100340.25
2023-02-01T09:44:43.973Z,100360.00
2023-02-01T09:47:19.662Z,100349.72
2023-02-01T09:49:56.646Z,100369.50
2023-02-01T09:52:27.831Z,100341.94
2023-02-01T09:55:01.971Z,100346.72
2023-02-01T09:57:46.874Z,100357.41
2023-02-01T10:00:23.080Z,100359.72
2023-02-01T10:02:50.532Z,100368.09
2023-02-01T10:05:20.305Z,100358.16
2023-02-01T10:07:46.895Z,100362.06
2023-02-01T10:10:16.272Z,100368.28
2023-02-01T10:12:57.983Z,100380.09
2023-02-01T10:15:31.729Z,100380.47
2023-02-01T10:18:18.406Z,100384.00
2023-02-01T10:21:00.289Z,100396.53
2023-02-01T10:23:36.111Z,100398.84
2023-02-01T10:26:17.673Z,100409.66
2023-02-01T10:28:45.638Z,100424.88
2023-02-01T10:31:12.214Z,100425.91
2023-02-01T10:33:50.431Z,100421.53
2023-02-01T10:36:20.887Z,100431.41
2023-02-01T10:38:47.486Z,100437.13
2023-02-01T10:41:16.088Z,100427.56
2023-02-01T10:43:43.254Z,100429.84
2023-02-01T10:46:10.081Z,100439.19
2023-02-01T10:48:37.588Z,100439.63
2023-02-01T10:51:08.491Z,100447.09
2023-02-01T10:53:41.386Z,100461.22
2023-02-01T10:56:09.761Z,100456.84
2023-02-01T10:58:38.239Z,100459.97
2023-02-01T11:01:06.437Z,100462.91
2023-02-01T11:03:36.028Z,100462.06
2023-02-01T11:06:05.017Z,100460.09
2023-02-01T11:08:31.609Z,100468.59
2023-02-01T11:10:59.776Z,100464.16
2023-02-01T11:13:29.938Z,100484.75
2023-02-01T11:15:57.720Z,100472.66
2023-02-01T11:18:27.932Z,100466.66
2023-02-01T11:20:56.082Z,100480.38
2023-02-01T11:23:24.131Z,100495.44
2023-02-01T11:25:50.615Z,100493.38
2023-02-01T11:28:17.461Z,100478.53
2023-02-01T11:30:46.475Z,100493.53
2023-02-01T11:33:20.804Z,100491.34
2023-02-01T11:35:48.681Z,100498.97
2023-02-01T11:38:35.448Z,100502.66
2023-02-01T11:41:15.389Z,100492.28
2023-02-01T11:43:52.688Z,100499.34
2023-02-01T11:46:26.142Z,100509.78
2023-02-01T11:48:54.742Z,100513.03
2023-02-01T11:51:26.102Z,100517.63
2023-02-01T11:53:55.707Z,100501.13
2023-02-01T11:56:25.248Z,100495.44
2023-02-01T11:59:05.557Z,100510.53
2023-02-01T12:01:41.331Z,100506.00
2023-02-01T12:04:26.974Z,100502.72
2023-02-01T12:06:58.536Z,100517.13
2023-02-01T12:09:43.526Z,100491.13
2023-02-01T12:12:10.503Z,100493.72
2023-02-01T12:15:06.473Z,100490.63
2023-02-01T12:17:51.512Z,100493.06
2023-02-01T12:20:33.662Z,100503.81
2023-02-01T12:23:03.177Z,100507.13
2023-02-01T12:25:29.915Z,100505.13
2023-02-01T12:27:59.481Z,100497.63
2023-02-01T12:30:35.074Z,100494.75
2023-02-01T12:33:19.898Z,100529.25
2023-02-01T12:35:58.843Z,100500.72
2023-02-01T12:38:32.132Z,100505.84
2023-02-01T12:41:07.899Z,100498.72
2023-02-01T12:43:34.458Z,100491.91
2023-02-01T12:46:08.331Z,100507.59
2023-02-01T12:48:50.107Z,100502.84
2023-02-01T12:51:19.443Z,100501.13
2023-02-01T12:53:52.907Z,100514.06
2023-02-01T12:56:26.407Z,100500.66
2023-02-01T12:58:55.837Z,100511.84
2023-02-01T13:01:34.612Z,100492.00
2023-02-01T13:04:07.182Z,100508.38
2023-02-01T13:06:43.100Z,100503.47
2023-02-01T13:09:15.909Z,100502.50
2023-02-01T13:11:46.139Z,100506.09
2023-02-01T13:14:21.894Z,100509.19
2023-02-01T13:16:53.682Z,100528.66
2023-02-01T13:19:20.275Z,100525.16
2023-02-01T13:21:52.493Z,100535.44
2023-02-01T13:24:33.907Z,100517.44
2023-02-01T13:27:01.138Z,100538.53
2023-02-01T13:29:29.249Z,100516.53
2023-02-01T13:31:58.541Z,100525.34
2023-02-01T13:34:45.326Z,100527.44
2023-02-01T13:37:38.532Z,100533.72
2023-02-01T13:40:08.805Z,100541.78
2023-02-01T13:42:43.133Z,100554.16
2023-02-01T13:45:17.500Z,100546.88
2023-02-01T13:47:46.718Z,100553.44
2023-02-01T13:50:20.542Z,100554.19
2023-02-01T13:52:52.997Z,100552.31
2023-02-01T13:55:22.748Z,100553.31
2023-02-01T13:57:50.892Z,100564.28
2023-02-01T14:00:28.154Z,100562.09
2023-02-01T14:03:00.490Z,100560.41
2023-02-01T14:05:27.218Z,100570.09
2023-02-01T14:08:06.289Z,100571.59
2023-02-01T14:10:51.770Z,100574.94
2023-02-01T14:13:27.904Z,100582.00
2023-02-01T14:16:03.636Z,100581.34
2023-02-01T14:18:36.526Z,100578.66
2023-02-01T14:21:23.695Z,100587.63
2023-02-01T14:23:53.694Z,100573.44
2023-02-01T14:26:35.651Z,100583.63
2023-02-01T14:29:21.248Z,100582.91
2023-02-01T14:31:55.218Z,100595.88
2023-02-01T14:34:23.777Z,100588.84
2023-02-01T14:36:56.535Z,100590.56
2023-02-01T14:39:28.080Z,100591.25
2023-02-01T14:41:59.709Z,100601.25
2023-02-01T14:44:30.723Z,100599.09
2023-02-01T14:47:11.502Z,100600.91
2023-02-01T14:49:48.552Z,100604.84
2023-02-01T14:52:17.379Z,100610.84
2023-02-01T14:54:47.135Z,100605.69
2023-02-01T14:57:18.480Z,100607.16
2023-02-01T14:59:46.491Z,100605.22
2023-02-01T15:02:22.832Z,100607.13
2023-02-01T15:04:54.349Z,100606.38
2023-02-01T15:07:22.217Z,100611.31
2023-02-01T15:09:49.363Z,100607.84
2023-02-01T15:12:23.784Z,100608.91
2023-02-01T15:15:09.159Z,100609.56
2023-02-01T15:17:35.675Z,100615.28
2023-02-01T15:20:04.694Z,100618.19
2023-02-01T15:22:32.429Z,100619.75
2023-02-01T15:24:59.869Z,100625.28
2023-02-01T15:27:27.300Z,100626.25
2023-02-01T15:29:53.967Z,100627.59
2023-02-01T15:32:32.355Z,100615.72
2023-02-01T15:34:59.450Z,100632.81
2023-02-01T15:37:26.311Z,100639.25
2023-02-01T15:40:25.383Z,100645.28
2023-02-01T15:43:00.053Z,100646.13
2023-02-01T15:45:28.608Z,100647.00
2023-02-01T15:47:56.901Z,100650.69
2023-02-01T15:50:25.373Z,100651.75
2023-02-01T15:52:55.120Z,100657.03
2023-02-01T15:55:26.246Z,100657.25
2023-02-01T15:57:53.278Z,100664.94
2023-02-01T16:00:23.362Z,100662.88
2023-02-01T16:02:57.996Z,100662.31
2023-02-01T16:05:36.895Z,100659.78
2023-02-01T16:08:09.102Z,100663.28
2023-02-01T16:10:40.035Z,100654.00
2023-02-01T16:13:06.645Z,100668.91
2023-02-01T16:15:33.157Z,100665.31
2023-02-01T16:17:59.779Z,100660.09
2023-02-01T16:20:26.313Z,100668.28
2023-02-01T16:22:52.952Z,100670.91
2023-02-01T16:25:19.515Z,100668.34
2023-02-01T16:27:46.050Z,100681.44
2023-02-01T16:30:12.720Z,100682.50
2023-02-01T16:32:39.415Z,100680.72
2023-02-01T16:35:06.808Z,100686.09
2023-02-01T16:37:35.370Z,100686.88
2023-02-01T16:40:01.930Z,100688.94
2023-02-01T16:42:31.632Z,100689.41
2023-02-01T16:44:58.202Z,100696.59
2023-02-01T16:47:24.991Z,100704.16
2023-02-01T16:49:51.521Z,100707.78
2023-02-01T16:52:19.623Z,100708.09
2023-02-01T16:54:46.224Z,100706.25
2023-02-01T16:57:16.947Z,100710.53
2023-02-01T16:59:45.147Z,100713.25
2023-02-01T17:02:21.955Z,100721.09
2023-02-01T17:04:49.745Z,100729.81
2023-02-01T17:07:17.374Z,100730.88
2023-02-01T17:09:44.012Z,100732.38
2023-02-01T17:12:19.524Z,100736.94
2023-02-01T17:14:46.161Z,100731.47
2023-02-01T17:17:12.711Z,100738.66
2023-02-01T17:19:39.231Z,100738.69
2023-02-01T17:22:05.828Z,100749.75
2023-02-01T17:24:47.529Z,100746.28
2023-02-01T17:27:14.888Z,100749.91
2023-02-01T17:29:42.563Z,100752.63
2023-02-01T17:32:15.187Z,100760.38
2023-02-01T17:34:42.355Z,100761.25
2023-02-01T17:37:24.255Z,100776.91
2023-02-01T17:39:56.618Z,100771.63
2023-02-01T17:42:27.056Z,100777.66
2023-02-01T17:44:56.621Z,100781.06
2023-02-01T17:47:23.239Z,100779.47
2023-02-01T17:49:56.442Z,100769.78
2023-02-01T17:52:24.086Z,100781.28
2023-02-01T17:54:53.961Z,100779.56
2023-02-01T17:57:20.833Z,100785.63
2023-02-01T17:59:47.856Z,100791.72
2023-02-01T18:02:24.356Z,100791.66
2023-02-01T18:04:51.432Z,100794.06
2023-02-01T18:07:18.128Z,100787.06
2023-02-01T18:09:44.633Z,100787.88
2023-02-01T18:12:18.829Z,100796.66
2023-02-01T18:14:45.424Z,100802.75
2023-02-01T18:17:12.988Z,100797.59
2023-02-01T18:19:39.634Z,100794.03
2023-02-01T18:22:06.636Z,100798.63
2023-02-01T18:24:34.877Z,100798.41
2023-02-01T18:27:01.465Z,100796.63
2023-02-01T18:29:27.977Z,100800.16
2023-02-01T18:31:55.240Z,100808.22
2023-02-01T18:34:22.698Z,100809.06
2023-02-01T18:36:49.803Z,100811.22
2023-02-01T18:39:16.839Z,100809.41
2023-02-01T18:41:44.266Z,100824.25
2023-02-01T18:44:17.000Z,100813.19
2023-02-01T18:46:43.793Z,100822.00
2023-02-01T18:49:12.340Z,100816.84
2023-02-01T18:51:38.894Z,100823.63
2023-02-01T18:54:06.186Z,100827.09
2023-02-01T18:56:32.783Z,100821.81
2023-02-01T18:59:00.206Z,100826.97
2023-02-01T19:01:26.788Z,100832.22
2023-02-01T19:03:55.739Z,100829.56
2023-02-01T19:06:27.553Z,100831.19
2023-02-01T19:08:56.200Z,100826.75
2023-02-01T19:11:22.865Z,100830.19
2023-02-01T19:13:50.505Z,100830.19
2023-02-01T19:16:17.414Z,100835.34
2023-02-01T19:18:44.043Z,100833.59
2023-02-01T19:21:13.002Z,100842.22
2023-02-01T19:23:40.399Z,100833.59
2023-02-01T19:26:14.129Z,100842.22
2023-02-01T19:28:40.975Z,100844.94
2023-02-01T19:31:08.746Z,100845.81
2023-02-01T19:33:35.515Z,100850.94
2023-02-01T19:36:05.364Z,100858.75
2023-02-01T19:38:35.170Z,100855.31
2023-02-01T19:41:01.774Z,100859.59
2023-02-01T19:43:28.459Z,100862.28
2023-02-01T19:45:55.098Z,100860.69
2023-02-01T19:48:21.640Z,100865.81
2023-02-01T19:50:48.289Z,100866.81
2023-02-01T19:53:14.901Z,100875.63
2023-02-01T19:55:46.812Z,100873.75
2023-02-01T19:58:13.371Z,100879.09
2023-02-01T20:00:39.032Z,100880.56
2023-02-01T20:03:05.844Z,100880.25
2023-02-01T20:05:32.499Z,100883.31
2023-02-01T20:07:59.011Z,100892.78
2023-02-01T20:10:25.582Z,100897.09
2023-02-01T20:12:52.230Z,100888.47
2023-02-01T20:15:18.796Z,100888.38
2023-02-01T20:17:45.330Z,100886.66
2023-02-01T20:20:12.354Z,100875.41
2023-02-01T20:22:38.965Z,100881.53
2023-02-01T20:25:06.221Z,100884.06
2023-02-01T20:27:33.631Z,100880.69
2023-02-01T20:30:00.158Z,100880.69
2023-02-01T20:32:26.752Z,100872.88
2023-02-01T20:34:54.401Z,100877.19
2023-02-01T20:37:21.482Z,100878.91
2023-02-01T20:39:48.058Z,100882.41
2023-02-01T20:42:14.610Z,100876.34
2023-02-01T20:44:41.160Z,100876.44
2023-02-01T20:47:07.666Z,100879.03
2023-02-01T20:49:35.437Z,100873.78
2023-02-01T20:52:02.028Z,100875.53
2023-02-01T20:54:28.612Z,100872.91
2023-02-01T20:56:55.338Z,100873.75
2023-02-01T20:59:21.872Z,100869.50
2023-02-01T21:01:54.572Z,100872.00
2023-02-01T21:04:22.401Z,100880.66
2023-02-01T21:06:49.167Z,100883.25
2023-02-01T21:09:16.047Z,100883.25
2023-02-01T21:11:42.771Z,100892.66
2023-02-01T21:14:09.304Z,100887.47
2023-02-01T21:16:35.902Z,100897.84
2023-02-01T21:19:02.528Z,100887.47
2023-02-01T21:21:29.175Z,100889.16
2023-02-01T21:23:56.454Z,100889.16
2023-02-01T21:26:24.278Z,100884.75
2023-02-01T21:28:51.905Z,100888.16
2023-02-01T21:31:21.096Z,100888.13
2023-02-01T21:33:48.655Z,100889.81
2023-02-01T21:36:19.096Z,100889.72
2023-02-01T21:38:52.574Z,100892.38
2023-02-01T21:41:38.847Z,100891.44
2023-02-01T21:44:06.513Z,100896.59
2023-02-01T21:46:33.168Z,100900.06
2023-02-01T21:49:04.230Z,100900.94
2023-02-01T21:51:32.619Z,100895.72
2023-02-01T21:53:59.192Z,100901.81
2023-02-01T21:56:25.774Z,100896.72
2023-02-01T21:58:55.382Z,100903.69
2023-02-01T22:01:22.208Z,100899.31
2023-02-01T22:03:49.372Z,100896.69
2023-02-01T22:06:26.181Z,100894.09
2023-02-01T22:08:52.970Z,100895.78
2023-02-01T22:11:19.593Z,100891.44
2023-02-01T22:13:46.532Z,100894.03
2023-02-01T22:16:14.659Z,100882.84
2023-02-01T22:18:41.307Z,100885.41
2023-02-01T22:21:07.928Z,100887.97
2023-02-01T22:23:34.522Z,100887.16
2023-02-01T22:26:09.116Z,100881.84
2023-02-01T22:28:39.571Z,100882.69
2023-02-01T22:31:07.737Z,100887.94
2023-02-01T22:33:34.679Z,100890.41
2023-02-01T22:36:01.718Z,100886.16
2023-02-01T22:38:31.804Z,100886.16
2023-02-01T22:40:59.066Z,100893.88
2023-02-01T22:43:26.066Z,100886.97
2023-02-01T22:45:52.676Z,100889.59
2023-02-01T22:48:19.302Z,100893.06
2023-02-01T22:50:46.261Z,100897.28
2023-02-01T22:53:13.033Z,100893.81
2023-02-01T22:55:42.406Z,100886.00
2023-02-01T22:58:09.002Z,100893.81
2023-02-01T23:00:35.612Z,100883.41
2023-02-01T23:03:02.194Z,100882.47
2023-02-01T23:05:28.732Z,100887.69
2023-02-01T23:07:55.272Z,100885.09
2023-02-01T23:10:21.884Z,100884.25
2023-02-01T23:12:49.138Z,100882.63
2023-02-01T23:15:16.344Z,100871.34
2023-02-01T23:17:44.000Z,100873.94
2023-02-01T23:20:15.944Z,100873.97
2023-02-01T23:22:43.205Z,100874.84
2023-02-01T23:25:10.651Z,100880.09
2023-02-01T23:27:37.587Z,100871.41
2023-02-01T23:30:06.096Z,100869.75
2023-02-01T23:32:36.262Z,100875.78
2023-02-01T23:35:03.596Z,100883.59
2023-02-01T23:37:30.431Z,100873.19
2023-02-01T23:39:57.051Z,100881.84
2023-02-01T23:42:23.608Z,100879.31
2023-02-01T23:44:50.164Z,100876.66
2023-02-01T23:47:16.737Z,100891.41
2023-02-01T23:49:43.283Z,100887.97
2023-02-01T23:52:09.969Z,100894.03
2023-02-01T23:54:36.503Z,100899.25
2023-02-01T23:57:03.035Z,100909.69
2023-02-01T23:59:32.215Z,100909.69
